createdAt,value
2022-09-04T00:01:48.397Z,56.10
2022-09-04T00:04:23.941Z,56.25
2022-09-04T00:06:56.897Z,56.17
2022-09-04T00:09:32.643Z,56.68
2022-09-04T00:12:05.345Z,55.75
2022-09-04T00:14:40.205Z,55.91
2022-09-04T00:17:11.800Z,55.48
2022-09-04T00:19:43.302Z,55.74
2022-09-04T00:22:21.837Z,55.93
2022-09-04T00:24:56.221Z,55.46
2022-09-04T00:27:26.266Z,55.56
2022-09-04T00:29:57.338Z,55.88
2022-09-04T00:32:36.572Z,56.13
2022-09-04T00:35:09.136Z,55.91
2022-09-04T00:37:40.315Z,55.88
2022-09-04T00:40:18.128Z,56.06
2022-09-04T00:43:02.953Z,56.15
2022-09-04T00:45:41.158Z,55.75
2022-09-04T00:48:37.280Z,56.01
2022-09-04T00:51:18.265Z,55.77
2022-09-04T00:54:28.591Z,55.97
2022-09-04T00:57:13.941Z,56.11
2022-09-04T00:59:57.216Z,56.39
2022-09-04T01:02:33.781Z,56.37
2022-09-04T01:05:09.603Z,56.12
2022-09-04T01:07:50.882Z,56.54
2022-09-04T01:10:31.445Z,56.46
2022-09-04T01:13:06.642Z,56.10
2022-09-04T01:15:39.059Z,55.83
2022-09-04T01:18:11.140Z,56.59
2022-09-04T01:21:15.927Z,56.05
2022-09-04T01:24:00.981Z,56.05
2022-09-04T01:26:37.525Z,55.87
2022-09-04T01:29:16.977Z,56.05
2022-09-04T01:31:51.776Z,56.12
2022-09-04T01:34:40.749Z,56.62
2022-09-04T01:37:21.078Z,56.60
2022-09-04T01:40:08.741Z,56.63
2022-09-04T01:42:43.961Z,56.86
2022-09-04T01:45:11.991Z,56.83
2022-09-04T01:47:45.008Z,56.61
2022-09-04T01:50:15.760Z,56.97
2022-09-04T01:52:50.512Z,56.77
2022-09-04T01:55:24.018Z,56.53
2022-09-04T01:58:00.961Z,57.07
2022-09-04T02:00:32.696Z,56.75
2022-09-04T02:03:05.809Z,56.99
2022-09-04T02:05:48.175Z,57.17
2022-09-04T02:08:31.052Z,56.87
2022-09-04T02:11:04.708Z,56.71
2022-09-04T02:13:43.606Z,57.30
2022-09-04T02:16:16.662Z,57.54
2022-09-04T02:18:51.300Z,57.29
2022-09-04T02:21:27.177Z,56.96
2022-09-04T02:24:04.683Z,57.42
2022-09-04T02:26:37.000Z,57.25
2022-09-04T02:29:11.363Z,57.81
2022-09-04T02:31:46.447Z,57.54
2022-09-04T02:34:19.515Z,58.06
2022-09-04T02:36:51.048Z,57.58
2022-09-04T02:39:30.785Z,57.52
2022-09-04T02:42:05.750Z,57.39
2022-09-04T02:44:43.286Z,57.11
2022-09-04T02:47:18.112Z,57.54
2022-09-04T02:49:55.349Z,57.47
2022-09-04T02:52:33.483Z,57.67
2022-09-04T02:55:15.622Z,57.47
2022-09-04T02:57:54.944Z,57.51
2022-09-04T03:00:28.207Z,57.44
2022-09-04T03:03:00.283Z,57.30
2022-09-04T03:05:32.729Z,57.27
2022-09-04T03:08:03.406Z,57.29
2022-09-04T03:10:33.349Z,57.14
2022-09-04T03:13:06.861Z,57.25
2022-09-04T03:15:40.984Z,57.21
2022-09-04T03:18:17.077Z,57.36
2022-09-04T03:20:48.599Z,57.24
2022-09-04T03:23:20.845Z,57.37
2022-09-04T03:25:58.130Z,57.59
2022-09-04T03:28:35.448Z,57.54
2022-09-04T03:31:17.687Z,57.37
2022-09-04T03:33:52.529Z,57.77
2022-09-04T03:36:27.929Z,57.25
2022-09-04T03:39:03.905Z,58.07
2022-09-04T03:41:37.448Z,58.20
2022-09-04T03:44:13.697Z,58.06
2022-09-04T03:46:51.026Z,58.29
2022-09-04T03:49:25.058Z,58.31
2022-09-04T03:52:01.159Z,58.70
2022-09-04T03:54:46.189Z,58.82
2022-09-04T03:57:23.716Z,58.61
2022-09-04T04:00:03.480Z,58.36
2022-09-04T04:02:40.578Z,59.06
2022-09-04T04:05:27.673Z,58.80
2022-09-04T04:08:41.281Z,58.57
2022-09-04T04:11:21.863Z,58.70
2022-09-04T04:14:06.869Z,58.17
2022-09-04T04:16:43.226Z,58.63
2022-09-04T04:19:27.613Z,58.50
2022-09-04T04:22:13.632Z,58.18
2022-09-04T04:24:55.128Z,58.15
2022-09-04T04:27:33.475Z,58.13
2022-09-04T04:30:07.443Z,58.44
2022-09-04T04:33:10.789Z,58.30
2022-09-04T04:35:44.500Z,58.08
2022-09-04T04:38:32.674Z,58.12
2022-09-04T04:41:12.977Z,58.54
2022-09-04T04:43:53.609Z,58.77
2022-09-04T04:46:27.829Z,59.51
2022-09-04T04:49:10.059Z,59.88
2022-09-04T04:51:56.311Z,59.81
2022-09-04T04:54:40.985Z,60.42
2022-09-04T04:57:14.188Z,59.98
2022-09-04T04:59:46.046Z,60.57
2022-09-04T05:02:21.266Z,60.62
2022-09-04T05:04:54.282Z,60.82
2022-09-04T05:07:35.427Z,60.97
2022-09-04T05:10:10.604Z,61.50
2022-09-04T05:12:50.978Z,61.14
2022-09-04T05:15:23.953Z,62.81
2022-09-04T05:17:54.488Z,62.65
2022-09-04T05:20:30.131Z,61.90
2022-09-04T05:23:10.681Z,62.59
2022-09-04T05:25:41.889Z,61.74
2022-09-04T05:28:22.141Z,61.37
2022-09-04T05:30:53.570Z,61.54
2022-09-04T05:33:26.725Z,61.58
2022-09-04T05:35:59.461Z,61.25
2022-09-04T05:38:31.882Z,62.17
2022-09-04T05:41:06.324Z,62.67
2022-09-04T05:43:54.419Z,62.68
2022-09-04T05:46:35.685Z,62.69
2022-09-04T05:49:11.915Z,62.87
2022-09-04T05:52:03.515Z,62.41
2022-09-04T05:54:59.457Z,62.87
2022-09-04T05:57:35.629Z,62.35
2022-09-04T06:00:13.568Z,62.65
2022-09-04T06:03:04.434Z,63.23
2022-09-04T06:05:42.272Z,62.32
2022-09-04T06:08:24.131Z,63.27
2022-09-04T06:11:03.921Z,63.23
2022-09-04T06:13:59.250Z,62.58
2022-09-04T06:16:41.788Z,63.43
2022-09-04T06:19:23.932Z,63.51
2022-09-04T06:22:05.503Z,63.16
2022-09-04T06:24:46.229Z,62.78
2022-09-04T06:27:35.351Z,63.55
2022-09-04T06:30:07.398Z,63.89
2022-09-04T06:32:56.417Z,64.66
2022-09-04T06:35:37.475Z,64.96
2022-09-04T06:38:15.979Z,65.42
2022-09-04T06:40:51.327Z,65.39
2022-09-04T06:43:29.685Z,65.83
2022-09-04T06:46:04.838Z,65.43
2022-09-04T06:48:43.691Z,65.19
2022-09-04T06:51:24.534Z,65.56
2022-09-04T06:53:59.783Z,65.22
2022-09-04T06:56:42.910Z,65.40
2022-09-04T06:59:31.274Z,65.21
2022-09-04T07:02:06.847Z,65.50
2022-09-04T07:04:44.952Z,65.31
2022-09-04T07:07:18.470Z,66.03
2022-09-04T07:09:48.720Z,65.56
2022-09-04T07:12:28.921Z,65.27
2022-09-04T07:15:22.325Z,65.91
2022-09-04T07:18:01.216Z,66.21
2022-09-04T07:20:34.521Z,65.74
2022-09-04T07:23:28.688Z,66.11
2022-09-04T07:26:06.098Z,65.88
2022-09-04T07:28:42.949Z,65.55
2022-09-04T07:31:15.784Z,65.49
2022-09-04T07:33:53.024Z,65.58
2022-09-04T07:36:29.560Z,65.67
2022-09-04T07:39:04.845Z,64.84
2022-09-04T07:41:39.653Z,64.98
2022-09-04T07:44:12.318Z,64.75
2022-09-04T07:46:46.885Z,65.45
2022-09-04T07:49:20.010Z,64.61
2022-09-04T07:51:54.857Z,64.44
2022-09-04T07:55:00.113Z,64.14
2022-09-04T07:57:47.716Z,63.77
2022-09-04T08:00:17.954Z,63.40
2022-09-04T08:03:01.291Z,63.53
2022-09-04T08:05:32.310Z,63.70
2022-09-04T08:08:26.267Z,62.97
2022-09-04T08:11:17.212Z,63.04
2022-09-04T08:14:18.447Z,62.99
2022-09-04T08:16:53.310Z,63.05
2022-09-04T08:19:34.429Z,62.67
2022-09-04T08:22:04.367Z,63.00
2022-09-04T08:25:03.488Z,62.50
2022-09-04T08:27:50.317Z,62.24
2022-09-04T08:30:21.044Z,61.98
2022-09-04T08:33:10.035Z,61.95
2022-09-04T08:35:46.952Z,62.64
2022-09-04T08:38:27.720Z,62.00
2022-09-04T08:41:35.324Z,61.56
2022-09-04T08:44:20.731Z,61.62
2022-09-04T08:47:18.771Z,61.67
2022-09-04T08:50:07.080Z,61.46
2022-09-04T08:53:03.597Z,60.78
2022-09-04T08:55:45.116Z,60.94
2022-09-04T08:58:32.067Z,60.76
2022-09-04T09:01:24.359Z,60.62
2022-09-04T09:04:11.752Z,61.33
2022-09-04T09:06:57.303Z,60.65
2022-09-04T09:09:54.220Z,61.43
2022-09-04T09:13:06.750Z,59.64
2022-09-04T09:15:50.359Z,59.62
2022-09-04T09:18:37.214Z,59.52
2022-09-04T09:21:10.361Z,59.51
2022-09-04T09:23:52.585Z,59.57
2022-09-04T09:26:31.009Z,59.35
2022-09-04T09:29:20.002Z,59.20
2022-09-04T09:32:15.796Z,58.46
2022-09-04T09:35:25.925Z,58.76
2022-09-04T09:38:06.035Z,58.52
2022-09-04T09:41:00.406Z,58.53
2022-09-04T09:43:59.001Z,58.42
2022-09-04T09:46:46.209Z,57.95
2022-09-04T09:49:42.536Z,57.77
2022-09-04T09:52:23.860Z,57.91
2022-09-04T09:55:07.011Z,57.59
2022-09-04T09:58:19.141Z,57.47
2022-09-04T10:00:59.013Z,57.65
2022-09-04T10:03:45.161Z,56.70
2022-09-04T10:07:00.398Z,56.60
2022-09-04T10:10:02.575Z,56.73
2022-09-04T10:12:48.068Z,56.80
2022-09-04T10:16:00.866Z,56.82
2022-09-04T10:18:57.532Z,56.73
2022-09-04T10:21:43.300Z,56.11
2022-09-04T10:24:36.159Z,55.70
2022-09-04T10:27:28.664Z,56.00
2022-09-04T10:30:06.159Z,55.13
2022-09-04T10:33:11.355Z,54.72
2022-09-04T10:36:07.628Z,55.30
2022-09-04T10:39:03.265Z,55.20
2022-09-04T10:41:43.177Z,55.01
2022-09-04T10:44:22.915Z,55.22
2022-09-04T10:46:59.599Z,55.60
2022-09-04T10:49:47.445Z,54.88
2022-09-04T10:52:38.044Z,54.49
2022-09-04T10:55:21.668Z,54.70
2022-09-04T10:58:15.109Z,55.01
2022-09-04T11:00:52.760Z,55.13
2022-09-04T11:03:41.552Z,54.82
2022-09-04T11:06:49.211Z,54.01
2022-09-04T11:09:28.293Z,53.82
2022-09-04T11:12:13.795Z,54.16
2022-09-04T11:14:53.937Z,54.08
2022-09-04T11:17:42.100Z,54.15
2022-09-04T11:20:47.873Z,53.61
2022-09-04T11:23:38.006Z,54.03
2022-09-04T11:26:47.760Z,53.67
2022-09-04T11:29:29.983Z,53.76
2022-09-04T11:32:25.616Z,54.11
2022-09-04T11:35:14.017Z,53.39
2022-09-04T11:37:59.320Z,53.24
2022-09-04T11:40:44.850Z,52.85
2022-09-04T11:43:24.563Z,53.04
2022-09-04T11:46:12.573Z,53.09
2022-09-04T11:48:48.894Z,52.79
2022-09-04T11:51:39.103Z,53.21
2022-09-04T11:54:20.340Z,53.08
2022-09-04T11:56:57.908Z,53.09
2022-09-04T11:59:44.797Z,53.22
2022-09-04T12:02:57.268Z,52.59
2022-09-04T12:05:40.269Z,53.31
2022-09-04T12:08:35.745Z,52.95
2022-09-04T12:11:19.143Z,52.85
2022-09-04T12:14:03.219Z,52.79
2022-09-04T12:16:47.654Z,52.83
2022-09-04T12:19:42.225Z,52.69
2022-09-04T12:22:44.052Z,52.96
2022-09-04T12:25:44.360Z,52.34
2022-09-04T12:28:38.797Z,52.48
2022-09-04T12:31:22.226Z,53.24
2022-09-04T12:34:12.829Z,52.76
2022-09-04T12:37:00.832Z,52.46
2022-09-04T12:39:54.027Z,52.26
2022-09-04T12:42:24.113Z,52.50
2022-09-04T12:45:04.127Z,52.08
2022-09-04T12:47:41.555Z,52.25
2022-09-04T12:50:37.240Z,51.84
2022-09-04T12:53:32.823Z,52.20
2022-09-04T12:56:05.715Z,51.72
2022-09-04T12:58:53.381Z,52.10
2022-09-04T13:01:31.892Z,52.35
2022-09-04T13:04:11.436Z,52.28
2022-09-04T13:06:50.389Z,52.06
2022-09-04T13:09:25.795Z,51.75
2022-09-04T13:12:02.965Z,52.28
2022-09-04T13:14:48.965Z,52.40
2022-09-04T13:17:23.237Z,52.11
2022-09-04T13:20:00.459Z,52.60
2022-09-04T13:22:45.869Z,52.10
2022-09-04T13:25:17.277Z,51.76
2022-09-04T13:27:57.223Z,51.53
2022-09-04T13:30:26.445Z,51.21
2022-09-04T13:33:16.361Z,50.91
2022-09-04T13:35:55.176Z,51.00
2022-09-04T13:38:41.064Z,51.90
2022-09-04T13:41:30.463Z,51.40
2022-09-04T13:44:20.664Z,51.28
2022-09-04T13:46:51.602Z,51.87
2022-09-04T13:49:24.369Z,50.49
2022-09-04T13:51:59.390Z,50.79
2022-09-04T13:54:31.323Z,50.18
2022-09-04T13:57:04.081Z,49.67
2022-09-04T13:59:31.976Z,50.39
2022-09-04T14:02:05.062Z,49.90
2022-09-04T14:04:37.324Z,50.57
2022-09-04T14:07:10.671Z,50.24
2022-09-04T14:09:43.881Z,50.53
2022-09-04T14:12:19.868Z,50.14
2022-09-04T14:15:16.115Z,50.68
2022-09-04T14:17:49.518Z,50.36
2022-09-04T14:20:22.509Z,49.82
2022-09-04T14:22:58.366Z,49.70
2022-09-04T14:25:32.204Z,50.40
2022-09-04T14:28:03.405Z,50.23
2022-09-04T14:30:34.183Z,49.86
2022-09-04T14:33:19.454Z,49.80
2022-09-04T14:35:59.764Z,50.20
2022-09-04T14:39:03.732Z,50.33
2022-09-04T14:41:39.870Z,50.36
2022-09-04T14:44:19.057Z,50.17
2022-09-04T14:46:56.106Z,50.13
2022-09-04T14:49:29.228Z,50.02
2022-09-04T14:51:57.205Z,49.86
2022-09-04T14:54:26.884Z,50.33
2022-09-04T14:56:57.974Z,50.32
2022-09-04T14:59:32.459Z,50.08
2022-09-04T15:02:14.236Z,50.97
2022-09-04T15:04:46.587Z,51.00
2022-09-04T15:07:25.137Z,50.44
2022-09-04T15:09:54.564Z,51.20
2022-09-04T15:12:27.403Z,51.08
2022-09-04T15:14:58.433Z,51.40
2022-09-04T15:17:28.329Z,50.92
2022-09-04T15:20:00.775Z,51.46
2022-09-04T15:22:34.609Z,51.14
2022-09-04T15:25:05.858Z,51.49
2022-09-04T15:27:40.759Z,51.65
2022-09-04T15:30:18.211Z,51.73
2022-09-04T15:32:46.318Z,51.22
2022-09-04T15:35:23.001Z,51.06
2022-09-04T15:37:52.997Z,51.33
2022-09-04T15:40:28.980Z,51.36
2022-09-04T15:43:04.621Z,51.28
2022-09-04T15:45:41.230Z,51.24
2022-09-04T15:48:29.012Z,51.68
2022-09-04T15:51:04.820Z,51.26
2022-09-04T15:53:34.665Z,51.46
2022-09-04T15:56:10.242Z,51.46
2022-09-04T15:58:47.585Z,51.04
2022-09-04T16:01:17.414Z,51.36
2022-09-04T16:04:01.143Z,51.52
2022-09-04T16:06:32.148Z,51.48
2022-09-04T16:09:03.932Z,51.19
2022-09-04T16:11:35.345Z,51.73
2022-09-04T16:14:08.107Z,51.60
2022-09-04T16:16:42.073Z,50.77
2022-09-04T16:19:18.124Z,51.04
2022-09-04T16:21:52.343Z,51.38
2022-09-04T16:24:30.683Z,51.36
2022-09-04T16:26:58.593Z,51.03
2022-09-04T16:29:36.477Z,51.77
2022-09-04T16:32:06.668Z,51.34
2022-09-04T16:34:38.857Z,51.92
2022-09-04T16:37:12.993Z,51.46
2022-09-04T16:39:48.534Z,51.56
2022-09-04T16:42:21.846Z,51.85
2022-09-04T16:44:54.406Z,51.52
2022-09-04T16:47:27.133Z,51.90
2022-09-04T16:50:00.409Z,51.55
2022-09-04T16:52:37.244Z,51.54
2022-09-04T16:55:10.397Z,51.88
2022-09-04T16:57:42.331Z,51.83
2022-09-04T17:00:14.594Z,51.96
2022-09-04T17:02:48.889Z,51.89
2022-09-04T17:05:23.511Z,51.56
2022-09-04T17:08:00.402Z,51.74
2022-09-04T17:10:36.983Z,51.92
2022-09-04T17:13:10.294Z,52.51
2022-09-04T17:15:53.122Z,52.23
2022-09-04T17:18:23.753Z,51.78
2022-09-04T17:25:43.297Z,52.03
2022-09-04T17:29:04.504Z,51.43
2022-09-04T17:29:15.035Z,51.73
2022-09-04T17:29:44.622Z,51.93
2022-09-04T17:33:30.579Z,51.91
2022-09-04T17:40:35.958Z,52.02
2022-09-04T17:40:36.610Z,52.44
2022-09-04T17:41:39.705Z,52.31
2022-09-04T17:44:19.617Z,52.28
2022-09-04T17:46:55.445Z,52.66
2022-09-04T17:49:34.648Z,52.13
2022-09-04T17:52:07.116Z,52.44
2022-09-04T17:54:41.040Z,52.30
2022-09-04T17:57:13.215Z,53.13
2022-09-04T17:59:45.846Z,52.72
2022-09-04T18:02:17.561Z,53.06
2022-09-04T18:04:51.289Z,52.50
2022-09-04T18:08:05.162Z,52.62
2022-09-04T18:10:20.035Z,52.74
2022-09-04T18:12:52.536Z,52.76
2022-09-04T18:15:33.764Z,52.40
2022-09-04T18:18:09.647Z,53.06
2022-09-04T18:20:41.564Z,52.83
2022-09-04T18:23:21.568Z,53.03
2022-09-04T18:25:53.577Z,52.62
2022-09-04T18:28:26.876Z,53.37
2022-09-04T18:37:11.171Z,53.18
2022-09-04T18:37:22.648Z,53.72
2022-09-04T18:37:23.209Z,53.44
2022-09-04T18:39:38.573Z,53.61
2022-09-04T18:49:10.338Z,53.54
2022-09-04T18:50:23.644Z,53.47
2022-09-04T18:50:45.858Z,53.55
2022-09-04T18:51:21.228Z,53.74
2022-09-04T18:53:54.176Z,53.96
2022-09-04T18:56:26.409Z,54.50
2022-09-04T18:59:08.052Z,54.36
2022-09-04T19:01:42.201Z,54.13
2022-09-04T19:04:33.963Z,54.47
2022-09-04T19:07:07.305Z,54.70
2022-09-04T19:09:59.619Z,54.24
2022-09-04T19:12:46.815Z,54.68
2022-09-04T19:15:48.009Z,54.65
2022-09-04T19:18:24.619Z,54.85
2022-09-04T19:20:55.830Z,54.45
2022-09-04T19:23:29.293Z,54.67
2022-09-04T19:26:04.080Z,55.12
2022-09-04T19:28:45.662Z,54.59
2022-09-04T19:31:31.139Z,54.71
2022-09-04T19:34:03.848Z,54.96
2022-09-04T19:36:38.321Z,55.38
2022-09-04T19:45:54.848Z,55.53
2022-09-04T19:46:07.545Z,55.13
2022-09-04T19:46:19.143Z,55.25
2022-09-04T19:47:58.588Z,54.97
2022-09-04T19:53:17.883Z,55.11
2022-09-04T19:53:38.896Z,55.19
2022-09-04T19:56:12.171Z,55.08
2022-09-04T19:58:44.065Z,55.30
2022-09-04T20:01:16.988Z,54.91
2022-09-04T20:03:50.338Z,55.10
2022-09-04T20:06:22.534Z,55.04
2022-09-04T20:08:55.955Z,54.99
2022-09-04T20:11:34.435Z,55.50
2022-09-04T20:14:13.815Z,55.24
2022-09-04T20:16:49.273Z,55.30
2022-09-04T20:19:27.683Z,54.95
2022-09-04T20:25:01.166Z,54.92
2022-09-04T20:27:38.365Z,55.41
2022-09-04T20:30:12.336Z,55.63
2022-09-04T20:32:51.259Z,55.45
2022-09-04T20:35:33.059Z,55.62
2022-09-04T20:38:23.354Z,55.60
2022-09-04T20:40:55.728Z,55.27
2022-09-04T20:43:31.472Z,55.48
2022-09-04T20:52:45.032Z,55.46
2022-09-04T20:52:53.855Z,55.35
2022-09-04T20:52:56.434Z,55.51
2022-09-04T20:55:05.374Z,55.28
2022-09-04T21:03:13.651Z,55.32
2022-09-04T21:03:25.555Z,55.15
2022-09-04T21:03:56.402Z,55.51
2022-09-04T21:06:30.445Z,55.40
2022-09-04T21:09:06.827Z,55.29
2022-09-04T21:11:41.685Z,55.57
2022-09-04T21:14:15.460Z,55.48
2022-09-04T21:16:56.209Z,55.93
2022-09-04T21:19:41.107Z,55.74
2022-09-04T21:22:32.911Z,55.71
2022-09-04T21:25:18.364Z,55.71
2022-09-04T21:28:12.260Z,55.76
2022-09-04T21:30:49.975Z,56.08
2022-09-04T21:33:32.307Z,55.89
2022-09-04T21:36:26.683Z,55.67
2022-09-04T21:39:25.016Z,55.92
2022-09-04T21:42:21.888Z,55.89
2022-09-04T21:45:04.300Z,55.86
2022-09-04T21:47:52.355Z,55.57
2022-09-04T21:50:42.232Z,55.50
2022-09-04T21:53:40.837Z,56.06
2022-09-04T21:59:41.207Z,56.31
2022-09-04T22:02:42.250Z,56.01
2022-09-04T22:02:51.470Z,55.62
2022-09-04T22:05:23.661Z,55.89
2022-09-04T22:12:11.751Z,55.63
2022-09-04T22:13:39.192Z,55.55
2022-09-04T22:13:50.634Z,55.78
2022-09-04T22:16:42.410Z,55.90
2022-09-04T22:19:35.763Z,55.92
2022-09-04T22:22:17.260Z,55.84
2022-09-04T22:25:07.205Z,55.85
2022-09-04T22:28:07.882Z,56.37
2022-09-04T22:30:49.409Z,56.36
2022-09-04T22:33:48.472Z,56.57
2022-09-04T22:36:59.122Z,56.59
2022-09-04T22:39:45.924Z,56.80
2022-09-04T22:42:35.551Z,56.67
2022-09-04T22:45:29.585Z,56.42
2022-09-04T22:48:21.810Z,56.09
2022-09-04T22:51:04.365Z,56.40
2022-09-04T22:53:52.068Z,56.62
2022-09-04T22:56:29.473Z,56.50
2022-09-04T22:59:26.483Z,56.80
2022-09-04T23:02:14.206Z,56.14
2022-09-04T23:05:06.032Z,56.43
2022-09-04T23:13:42.211Z,56.72
2022-09-04T23:13:50.286Z,56.80
2022-09-04T23:14:07.783Z,56.95
2022-09-04T23:17:14.104Z,57.09
2022-09-04T23:26:39.156Z,57.12
2022-09-04T23:26:42.694Z,57.17
2022-09-04T23:26:54.237Z,57.65
2022-09-04T23:29:24.833Z,57.19
2022-09-04T23:32:09.965Z,57.50
2022-09-04T23:35:13.412Z,57.22
2022-09-04T23:38:00.019Z,57.95
2022-09-04T23:40:42.272Z,57.25
2022-09-04T23:43:40.565Z,58.20
2022-09-04T23:46:23.618Z,57.28
2022-09-04T23:49:19.061Z,57.76
2022-09-04T23:51:51.929Z,57.64
2022-09-04T23:54:37.389Z,57.94
2022-09-04T23:57:23.463Z,57.71
2022-09-04T23:59:59.388Z,57.28
